createdAt,value
2023-01-25T00:02:23.815Z,19.63
2023-01-25T00:04:50.389Z,17.40
2023-01-25T00:07:16.855Z,19.97
2023-01-25T00:09:43.638Z,18.13
2023-01-25T00:12:10.171Z,17.77
2023-01-25T00:14:36.627Z,18.40
2023-01-25T00:17:03.078Z,17.60
2023-01-25T00:19:29.617Z,18.90
2023-01-25T00:21:56.726Z,18.30
2023-01-25T00:24:24.226Z,18.17
2023-01-25T00:26:50.785Z,18.00
2023-01-25T00:29:17.681Z,17.77
2023-01-25T00:31:54.463Z,19.27
2023-01-25T00:34:24.098Z,17.60
2023-01-25T00:37:12.737Z,18.63
2023-01-25T00:39:39.285Z,18.57
2023-01-25T00:42:08.765Z,18.40
2023-01-25T00:44:35.350Z,20.40
2023-01-25T00:47:02.139Z,17.40
2023-01-25T00:49:30.945Z,16.73
2023-01-25T00:51:58.370Z,16.10
2023-01-25T00:54:24.981Z,17.80
2023-01-25T00:56:56.423Z,18.43
2023-01-25T00:59:24.183Z,17.67
2023-01-25T01:01:51.596Z,20.23
2023-01-25T01:04:19.227Z,20.57
2023-01-25T01:06:46.047Z,21.00
2023-01-25T01:09:15.351Z,19.13
2023-01-25T01:11:42.138Z,18.97
2023-01-25T01:14:09.351Z,18.63
2023-01-25T01:16:36.123Z,18.70
2023-01-25T01:19:02.817Z,19.60
2023-01-25T01:21:29.572Z,19.23
2023-01-25T01:23:56.719Z,19.63
2023-01-25T01:26:23.780Z,20.30
2023-01-25T01:28:50.293Z,20.97
2023-01-25T01:31:19.110Z,17.73
2023-01-25T01:33:49.230Z,16.97
2023-01-25T01:36:16.893Z,18.27
2023-01-25T01:38:43.828Z,18.50
2023-01-25T01:41:11.119Z,18.47
2023-01-25T01:43:37.870Z,18.53
2023-01-25T01:46:09.534Z,19.50
2023-01-25T01:48:51.148Z,19.53
2023-01-25T01:51:36.432Z,18.57
2023-01-25T01:54:07.340Z,18.30
2023-01-25T01:56:49.798Z,19.63
2023-01-25T01:59:16.307Z,19.33
2023-01-25T02:01:43.572Z,19.40
2023-01-25T02:04:10.792Z,19.17
2023-01-25T02:06:48.343Z,20.00
2023-01-25T02:09:19.619Z,18.50
2023-01-25T02:11:46.880Z,18.87
2023-01-25T02:14:15.209Z,18.83
2023-01-25T02:16:41.777Z,19.30
2023-01-25T02:19:17.803Z,20.03
2023-01-25T02:21:45.997Z,17.83
2023-01-25T02:24:27.648Z,17.47
2023-01-25T02:26:54.523Z,19.37
2023-01-25T02:29:24.018Z,18.67
2023-01-25T02:31:52.668Z,20.30
2023-01-25T02:34:19.369Z,19.33
2023-01-25T02:36:45.888Z,20.50
2023-01-25T02:39:16.717Z,20.40
2023-01-25T02:41:46.723Z,20.27
2023-01-25T02:44:14.524Z,20.20
2023-01-25T02:46:42.034Z,20.20
2023-01-25T02:49:10.151Z,19.00
2023-01-25T02:51:40.192Z,19.47
2023-01-25T02:54:08.171Z,20.80
2023-01-25T02:56:34.828Z,19.83
2023-01-25T02:59:05.507Z,21.17
2023-01-25T03:01:37.179Z,20.67
2023-01-25T03:04:05.398Z,20.60
2023-01-25T03:06:32.856Z,19.73
2023-01-25T03:08:59.453Z,21.90
2023-01-25T03:11:25.938Z,20.40
2023-01-25T03:13:52.580Z,21.67
2023-01-25T03:16:19.551Z,21.57
2023-01-25T03:18:46.145Z,22.67
2023-01-25T03:21:15.319Z,19.63
2023-01-25T03:23:43.312Z,20.23
2023-01-25T03:26:11.480Z,20.03
2023-01-25T03:28:39.097Z,19.97
2023-01-25T03:31:06.403Z,22.00
2023-01-25T03:33:33.262Z,19.00
2023-01-25T03:36:00.044Z,20.30
2023-01-25T03:40:53.891Z,19.80
2023-01-25T03:43:20.809Z,21.10
2023-01-25T03:45:53.096Z,21.03
2023-01-25T03:48:20.046Z,20.87
2023-01-25T03:50:51.792Z,18.83
2023-01-25T03:53:31.304Z,17.73
2023-01-25T03:56:03.375Z,18.60
2023-01-25T03:58:30.700Z,20.53
2023-01-25T04:00:59.279Z,17.83
2023-01-25T04:03:26.242Z,20.00
2023-01-25T04:05:54.086Z,18.87
2023-01-25T04:08:21.320Z,20.90
2023-01-25T04:11:01.268Z,18.17
2023-01-25T04:13:28.200Z,19.20
2023-01-25T04:15:55.072Z,17.80
2023-01-25T04:18:21.717Z,19.97
2023-01-25T04:20:55.354Z,19.93
2023-01-25T04:23:22.580Z,18.57
2023-01-25T04:25:53.493Z,19.70
2023-01-25T04:28:19.960Z,18.67
2023-01-25T04:30:47.166Z,20.17
2023-01-25T04:33:13.843Z,18.50
2023-01-25T04:35:40.323Z,20.63
2023-01-25T04:38:07.265Z,20.20
2023-01-25T04:40:33.779Z,20.43
2023-01-25T04:43:00.363Z,20.10
2023-01-25T04:45:26.930Z,20.07
2023-01-25T04:48:02.017Z,21.60
2023-01-25T04:50:28.874Z,18.07
2023-01-25T04:52:55.408Z,19.20
2023-01-25T04:55:22.047Z,19.30
2023-01-25T04:57:51.960Z,19.23
2023-01-25T05:00:19.538Z,21.23
2023-01-25T05:02:46.597Z,19.37
2023-01-25T05:05:13.394Z,22.40
2023-01-25T05:07:39.979Z,21.50
2023-01-25T05:10:08.267Z,21.60
2023-01-25T05:12:35.025Z,20.70
2023-01-25T05:15:01.571Z,20.60
2023-01-25T05:17:28.209Z,21.00
2023-01-25T05:19:54.704Z,21.40
2023-01-25T05:22:21.402Z,19.87
2023-01-25T05:24:48.196Z,21.37
2023-01-25T05:27:17.640Z,21.27
2023-01-25T05:29:45.459Z,19.43
2023-01-25T05:32:16.238Z,20.43
2023-01-25T05:34:43.581Z,20.33
2023-01-25T05:37:12.968Z,21.90
2023-01-25T05:39:39.630Z,19.07
2023-01-25T05:42:14.147Z,21.27
2023-01-25T05:44:41.066Z,23.27
2023-01-25T05:47:12.681Z,23.40
2023-01-25T05:49:39.271Z,22.57
2023-01-25T05:52:05.841Z,22.90
2023-01-25T05:54:32.870Z,20.77
2023-01-25T05:57:00.233Z,20.50
2023-01-25T05:59:27.198Z,21.73
2023-01-25T06:01:53.867Z,19.67
2023-01-25T06:04:20.671Z,21.67
2023-01-25T06:06:47.262Z,21.10
2023-01-25T06:09:14.569Z,21.57
2023-01-25T06:11:47.954Z,20.47
2023-01-25T06:14:14.732Z,21.13
2023-01-25T06:16:41.593Z,19.50
2023-01-25T06:19:08.712Z,22.50
2023-01-25T06:21:38.792Z,21.43
2023-01-25T06:24:05.711Z,20.60
2023-01-25T06:26:32.334Z,22.90
2023-01-25T06:28:59.134Z,21.77
2023-01-25T06:31:25.843Z,21.67
2023-01-25T06:33:53.072Z,22.33
2023-01-25T06:36:20.919Z,19.33
2023-01-25T06:38:51.815Z,18.40
2023-01-25T06:41:19.485Z,20.83
2023-01-25T06:43:47.848Z,20.07
2023-01-25T06:46:14.694Z,21.70
2023-01-25T06:48:42.957Z,19.30
2023-01-25T06:51:11.691Z,22.70
2023-01-25T06:53:40.403Z,21.00
2023-01-25T06:56:12.463Z,20.03
2023-01-25T06:58:39.765Z,20.07
2023-01-25T07:01:15.893Z,18.73
2023-01-25T07:03:42.876Z,19.30
2023-01-25T07:06:11.286Z,18.80
2023-01-25T07:08:39.650Z,18.40
2023-01-25T07:11:09.607Z,16.27
2023-01-25T07:13:36.123Z,16.10
2023-01-25T07:16:05.655Z,18.13
2023-01-25T07:18:32.816Z,18.57
2023-01-25T07:21:07.950Z,17.40
2023-01-25T07:23:34.953Z,17.03
2023-01-25T07:26:01.876Z,16.30
2023-01-25T07:28:28.919Z,16.17
2023-01-25T07:30:55.562Z,16.80
2023-01-25T07:33:22.125Z,16.87
2023-01-25T07:35:51.003Z,16.93
2023-01-25T07:38:17.795Z,15.33
2023-01-25T07:40:44.628Z,14.27
2023-01-25T07:43:11.191Z,15.20
2023-01-25T07:45:38.016Z,16.70
2023-01-25T07:48:09.958Z,15.33
2023-01-25T07:50:36.551Z,16.27
2023-01-25T07:53:03.207Z,18.50
2023-01-25T07:55:29.711Z,17.70
2023-01-25T07:57:56.381Z,18.13
2023-01-25T08:00:24.152Z,19.83
2023-01-25T08:02:52.115Z,20.30
2023-01-25T08:05:19.724Z,19.73
2023-01-25T08:07:47.362Z,19.23
2023-01-25T08:10:14.396Z,20.23
2023-01-25T08:12:45.666Z,19.60
2023-01-25T08:15:15.385Z,18.53
2023-01-25T08:17:41.989Z,19.93
2023-01-25T08:20:09.898Z,19.33
2023-01-25T08:22:36.571Z,21.53
2023-01-25T08:25:04.385Z,21.77
2023-01-25T08:27:30.964Z,21.20
2023-01-25T08:29:57.527Z,22.60
2023-01-25T08:32:24.279Z,22.47
2023-01-25T08:34:51.026Z,22.37
2023-01-25T08:37:17.557Z,21.63
2023-01-25T08:39:44.157Z,21.80
2023-01-25T08:42:10.783Z,21.30
2023-01-25T08:44:37.328Z,23.37
2023-01-25T08:47:04.128Z,24.57
2023-01-25T08:49:31.724Z,22.30
2023-01-25T08:51:58.589Z,22.20
2023-01-25T08:54:25.248Z,19.43
2023-01-25T08:56:52.036Z,20.60
2023-01-25T08:59:18.595Z,20.67
2023-01-25T09:01:45.142Z,20.70
2023-01-25T09:04:11.707Z,22.57
2023-01-25T09:06:38.317Z,21.90
2023-01-25T09:09:04.932Z,22.17
2023-01-25T09:11:33.609Z,22.67
2023-01-25T09:14:00.085Z,33.90
2023-01-25T09:16:30.271Z,21.77
2023-01-25T09:18:58.799Z,24.03
2023-01-25T09:21:25.768Z,22.40
2023-01-25T09:24:09.708Z,21.90
2023-01-25T09:26:42.973Z,23.10
2023-01-25T09:29:11.629Z,22.77
2023-01-25T09:31:45.180Z,20.40
2023-01-25T09:34:13.287Z,21.97
2023-01-25T09:36:41.054Z,21.30
2023-01-25T09:39:07.704Z,20.23
2023-01-25T09:42:00.722Z,20.20
2023-01-25T09:44:42.446Z,21.23
2023-01-25T09:47:14.920Z,18.60
2023-01-25T09:50:12.992Z,19.10
2023-01-25T09:53:19.146Z,18.00
2023-01-25T09:55:51.113Z,20.87
2023-01-25T09:58:21.321Z,19.20
2023-01-25T10:00:50.994Z,17.43
2023-01-25T10:03:20.640Z,21.50
2023-01-25T10:05:49.847Z,19.00
2023-01-25T10:08:48.046Z,19.83
2023-01-25T10:11:19.443Z,18.90
2023-01-25T10:13:46.078Z,19.93
2023-01-25T10:16:37.492Z,20.33
2023-01-25T10:19:24.434Z,18.50
2023-01-25T10:21:58.622Z,19.30
2023-01-25T10:25:13.732Z,18.23
2023-01-25T10:27:50.744Z,16.80
2023-01-25T10:30:27.717Z,18.30
2023-01-25T10:33:11.927Z,19.60
2023-01-25T10:35:43.116Z,19.30
2023-01-25T10:38:21.825Z,18.20
2023-01-25T10:40:53.563Z,17.87
2023-01-25T10:43:23.379Z,17.07
2023-01-25T10:45:50.667Z,15.47
2023-01-25T10:48:21.864Z,16.77
2023-01-25T10:50:51.704Z,15.40
2023-01-25T10:53:37.253Z,17.50
2023-01-25T10:56:13.033Z,17.20
2023-01-25T10:58:42.385Z,16.83
2023-01-25T11:01:30.241Z,17.67
2023-01-25T11:03:57.633Z,18.33
2023-01-25T11:06:47.574Z,16.63
2023-01-25T11:09:29.553Z,17.73
2023-01-25T11:11:57.336Z,20.30
2023-01-25T11:14:27.222Z,17.07
2023-01-25T11:16:55.887Z,16.67
2023-01-25T11:19:39.880Z,18.20
2023-01-25T11:22:18.968Z,15.80
2023-01-25T11:24:46.119Z,16.70
2023-01-25T11:27:24.620Z,18.27
2023-01-25T11:30:12.843Z,18.40
2023-01-25T11:32:40.504Z,17.90
2023-01-25T11:35:25.556Z,15.80
2023-01-25T11:38:14.186Z,17.87
2023-01-25T11:41:18.391Z,17.53
2023-01-25T11:43:56.391Z,16.00
2023-01-25T11:46:29.331Z,18.87
2023-01-25T11:49:18.973Z,16.10
2023-01-25T11:52:13.537Z,17.23
2023-01-25T11:55:01.979Z,16.37
2023-01-25T11:57:39.860Z,18.40
2023-01-25T12:00:28.914Z,16.37
2023-01-25T12:03:03.629Z,16.17
2023-01-25T12:06:04.276Z,15.40
2023-01-25T12:09:03.363Z,16.40
2023-01-25T12:12:10.013Z,15.27
2023-01-25T12:14:48.723Z,17.17
2023-01-25T12:18:09.172Z,15.60
2023-01-25T12:21:22.926Z,16.43
2023-01-25T12:24:18.171Z,15.77
2023-01-25T12:27:09.738Z,15.63
2023-01-25T12:29:41.116Z,16.10
2023-01-25T12:32:51.768Z,16.90
2023-01-25T12:35:23.756Z,16.80
2023-01-25T12:37:55.617Z,17.47
2023-01-25T12:40:40.868Z,18.00
2023-01-25T12:43:24.743Z,17.73
2023-01-25T12:45:51.729Z,18.00
2023-01-25T12:48:28.903Z,17.07
2023-01-25T12:50:59.923Z,18.77
2023-01-25T12:53:41.850Z,17.30
2023-01-25T12:56:11.830Z,17.23
2023-01-25T12:58:44.189Z,16.03
2023-01-25T13:01:27.593Z,18.07
2023-01-25T13:04:23.587Z,15.40
2023-01-25T13:07:15.502Z,16.00
2023-01-25T13:09:59.750Z,16.33
2023-01-25T13:12:26.516Z,15.40
2023-01-25T13:14:53.405Z,16.60
2023-01-25T13:17:41.185Z,14.43
2023-01-25T13:20:38.805Z,15.20
2023-01-25T13:23:13.072Z,14.10
2023-01-25T13:25:39.536Z,14.30
2023-01-25T13:28:40.703Z,15.80
2023-01-25T13:31:07.291Z,14.33
2023-01-25T13:33:35.783Z,16.17
2023-01-25T13:36:39.899Z,15.80
2023-01-25T13:39:32.983Z,17.57
2023-01-25T13:41:59.898Z,16.00
2023-01-25T13:44:28.800Z,16.30
2023-01-25T13:47:03.748Z,17.57
2023-01-25T13:49:41.512Z,16.33
2023-01-25T13:52:11.793Z,16.30
2023-01-25T13:54:49.674Z,15.40
2023-01-25T13:57:22.022Z,15.83
2023-01-25T13:59:50.794Z,17.57
2023-01-25T14:02:20.828Z,24.43
2023-01-25T14:04:48.768Z,21.37
2023-01-25T14:07:20.511Z,15.40
2023-01-25T14:09:48.474Z,16.80
2023-01-25T14:12:33.963Z,17.43
2023-01-25T14:15:23.103Z,15.00
2023-01-25T14:18:15.189Z,14.30
2023-01-25T14:20:42.970Z,14.83
2023-01-25T14:23:30.929Z,15.13
2023-01-25T14:25:59.239Z,13.97
2023-01-25T14:28:26.991Z,12.10
2023-01-25T14:30:55.808Z,12.20
2023-01-25T14:33:27.257Z,12.93
2023-01-25T14:36:00.055Z,14.00
2023-01-25T14:38:33.080Z,14.40
2023-01-25T14:41:18.338Z,12.50
2023-01-25T14:43:53.776Z,13.27
2023-01-25T14:46:28.570Z,16.37
2023-01-25T14:49:26.851Z,13.97
2023-01-25T14:52:05.853Z,13.10
2023-01-25T14:54:35.072Z,13.40
2023-01-25T14:57:05.228Z,15.73
2023-01-25T14:59:36.259Z,15.00
2023-01-25T15:02:15.063Z,14.20
2023-01-25T15:05:11.100Z,16.50
2023-01-25T15:07:49.030Z,14.43
2023-01-25T15:10:28.843Z,15.57
2023-01-25T15:13:12.832Z,15.50
2023-01-25T15:16:10.081Z,14.03
2023-01-25T15:18:53.964Z,12.70
2023-01-25T15:21:30.063Z,15.73
2023-01-25T15:23:58.595Z,13.90
2023-01-25T15:26:29.796Z,13.97
2023-01-25T15:29:02.308Z,14.03
2023-01-25T15:31:31.580Z,14.27
2023-01-25T15:33:58.924Z,13.57
2023-01-25T15:36:26.020Z,15.20
2023-01-25T15:38:52.566Z,14.40
2023-01-25T15:41:19.208Z,13.20
2023-01-25T15:43:46.685Z,12.57
2023-01-25T15:46:19.460Z,15.20
2023-01-25T15:48:46.741Z,16.00
2023-01-25T15:51:13.392Z,13.20
2023-01-25T15:53:40.222Z,14.60
2023-01-25T15:56:12.562Z,15.40
2023-01-25T15:58:42.201Z,15.23
2023-01-25T16:01:09.134Z,16.53
2023-01-25T16:03:35.999Z,16.43
2023-01-25T16:06:20.136Z,18.23
2023-01-25T16:08:46.728Z,17.00
2023-01-25T16:11:13.399Z,16.93
2023-01-25T16:13:41.478Z,17.13
2023-01-25T16:16:17.465Z,18.10
2023-01-25T16:18:44.200Z,16.47
2023-01-25T16:21:12.537Z,18.73
2023-01-25T16:23:39.559Z,20.43
2023-01-25T16:26:16.457Z,18.30
2023-01-25T16:28:43.019Z,18.57
2023-01-25T16:31:30.819Z,20.00
2023-01-25T16:33:58.422Z,21.90
2023-01-25T16:36:25.169Z,23.63
2023-01-25T16:38:51.752Z,19.00
2023-01-25T16:41:18.796Z,31.40
2023-01-25T16:43:47.217Z,21.50
2023-01-25T16:46:22.339Z,22.17
2023-01-25T16:48:51.143Z,20.00
2023-01-25T16:51:20.943Z,20.60
2023-01-25T16:53:48.649Z,20.53
2023-01-25T16:56:19.576Z,21.53
2023-01-25T16:58:46.723Z,22.17
2023-01-25T17:01:14.391Z,22.20
2023-01-25T17:03:41.185Z,21.57
2023-01-25T17:06:08.114Z,23.37
2023-01-25T17:08:34.719Z,21.80
2023-01-25T17:11:05.565Z,23.57
2023-01-25T17:13:32.319Z,23.27
2023-01-25T17:16:00.859Z,26.43
2023-01-25T17:18:28.058Z,24.30
2023-01-25T17:20:58.388Z,28.03
2023-01-25T17:23:25.204Z,23.70
2023-01-25T17:25:51.879Z,45.70
2023-01-25T17:28:18.353Z,47.03
2023-01-25T17:30:44.952Z,35.23
2023-01-25T17:33:12.801Z,26.67
2023-01-25T17:35:39.385Z,28.37
2023-01-25T17:38:06.020Z,26.67
2023-01-25T17:40:34.878Z,26.60
2023-01-25T17:43:01.818Z,26.80
2023-01-25T17:45:28.358Z,26.40
2023-01-25T17:47:54.879Z,28.87
2023-01-25T17:50:21.600Z,26.67
2023-01-25T17:52:48.483Z,29.63
2023-01-25T17:55:15.060Z,27.13
2023-01-25T17:57:41.656Z,29.00
2023-01-25T18:00:11.851Z,28.20
2023-01-25T18:02:38.807Z,25.93
2023-01-25T18:05:08.095Z,26.40
2023-01-25T18:07:34.606Z,28.00
2023-01-25T18:10:01.117Z,29.20
2023-01-25T18:12:28.008Z,28.50
2023-01-25T18:14:54.509Z,28.60
2023-01-25T18:17:20.999Z,29.50
2023-01-25T18:19:48.965Z,29.47
2023-01-25T18:22:16.186Z,28.13
2023-01-25T18:24:44.177Z,28.80
2023-01-25T18:27:24.564Z,27.40
2023-01-25T18:29:59.683Z,28.50
2023-01-25T18:32:26.899Z,27.57
2023-01-25T18:34:53.613Z,27.97
2023-01-25T18:37:25.624Z,29.00
2023-01-25T18:39:54.951Z,28.30
2023-01-25T18:42:23.954Z,30.60
2023-01-25T18:44:50.660Z,29.33
2023-01-25T18:47:18.933Z,30.10
2023-01-25T18:49:50.177Z,32.10
2023-01-25T18:52:18.303Z,32.13
2023-01-25T18:54:45.239Z,30.23
2023-01-25T18:57:13.293Z,31.10
2023-01-25T18:59:40.302Z,28.77
2023-01-25T19:02:07.872Z,29.70
2023-01-25T19:04:34.432Z,29.40
2023-01-25T19:07:01.697Z,28.50
2023-01-25T19:09:28.673Z,29.27
2023-01-25T19:11:55.522Z,31.73
2023-01-25T19:14:22.872Z,29.87
2023-01-25T19:16:49.828Z,28.90
2023-01-25T19:19:16.658Z,32.40
2023-01-25T19:21:43.216Z,29.20
2023-01-25T19:24:15.276Z,33.93
2023-01-25T19:26:42.028Z,32.37
2023-01-25T19:29:09.279Z,30.03
2023-01-25T19:31:37.300Z,28.67
2023-01-25T19:34:06.053Z,29.73
2023-01-25T19:36:36.084Z,30.13
2023-01-25T19:39:04.076Z,30.87
2023-01-25T19:41:31.369Z,29.97
2023-01-25T19:44:00.148Z,29.30
2023-01-25T19:46:30.127Z,29.10
2023-01-25T19:48:58.268Z,30.40
2023-01-25T19:51:33.002Z,28.50
2023-01-25T19:54:00.919Z,28.97
2023-01-25T19:56:29.285Z,29.13
2023-01-25T19:58:55.958Z,29.40
2023-01-25T20:01:24.426Z,36.87
2023-01-25T20:03:51.761Z,38.47
2023-01-25T20:06:19.912Z,43.40
2023-01-25T20:08:47.504Z,39.90
2023-01-25T20:11:15.109Z,33.33
2023-01-25T20:13:42.689Z,30.50
2023-01-25T20:16:11.051Z,28.50
2023-01-25T20:18:37.879Z,29.07
2023-01-25T20:21:06.724Z,30.17
2023-01-25T20:23:38.592Z,31.00
2023-01-25T20:26:15.528Z,30.03
2023-01-25T20:28:43.075Z,30.90
2023-01-25T20:31:26.221Z,34.23
2023-01-25T20:33:58.222Z,30.40
2023-01-25T20:36:25.667Z,27.33
2023-01-25T20:38:52.395Z,30.60
2023-01-25T20:41:19.192Z,27.83
2023-01-25T20:43:53.464Z,26.50
2023-01-25T20:46:21.745Z,26.40
2023-01-25T20:48:49.054Z,26.43
2023-01-25T20:51:21.468Z,27.70
2023-01-25T20:53:49.310Z,30.17
2023-01-25T20:56:16.949Z,42.27
2023-01-25T20:58:50.202Z,38.97
2023-01-25T21:01:22.346Z,42.20
2023-01-25T21:03:49.558Z,30.23
2023-01-25T21:06:17.040Z,30.00
2023-01-25T21:08:43.693Z,29.83
2023-01-25T21:11:11.519Z,31.40
2023-01-25T21:13:38.038Z,29.43
2023-01-25T21:16:06.118Z,30.90
2023-01-25T21:18:33.853Z,32.07
2023-01-25T21:21:07.465Z,28.80
2023-01-25T21:23:34.818Z,28.77
2023-01-25T21:26:02.435Z,28.50
2023-01-25T21:28:29.540Z,41.13
2023-01-25T21:30:56.431Z,37.33
2023-01-25T21:33:23.571Z,43.40
2023-01-25T21:35:54.281Z,41.10
2023-01-25T21:38:20.960Z,41.07
2023-01-25T21:40:47.805Z,28.20
2023-01-25T21:43:16.298Z,29.03
2023-01-25T21:46:01.484Z,28.57
2023-01-25T21:48:46.851Z,30.17
2023-01-25T21:51:32.390Z,27.53
2023-01-25T21:53:59.257Z,27.80
2023-01-25T21:56:25.798Z,27.80
2023-01-25T21:58:52.497Z,27.07
2023-01-25T22:01:20.119Z,27.87
2023-01-25T22:03:50.481Z,30.00
2023-01-25T22:06:18.358Z,29.40
2023-01-25T22:08:45.153Z,29.03
2023-01-25T22:11:12.082Z,29.43
2023-01-25T22:13:38.993Z,28.17
2023-01-25T22:16:07.205Z,30.40
2023-01-25T22:18:35.965Z,31.23
2023-01-25T22:21:05.256Z,32.70
2023-01-25T22:23:32.986Z,33.43
2023-01-25T22:26:08.037Z,32.77
2023-01-25T22:28:46.546Z,33.13
2023-01-25T22:31:22.290Z,30.50
2023-01-25T22:33:49.323Z,33.17
2023-01-25T22:36:17.780Z,31.90
2023-01-25T22:38:44.370Z,34.37
2023-01-25T22:41:16.637Z,35.20
2023-01-25T22:43:43.810Z,34.07
2023-01-25T22:46:12.303Z,34.07
2023-01-25T22:48:39.107Z,36.37
2023-01-25T22:51:08.070Z,35.77
2023-01-25T22:53:35.114Z,32.50
2023-01-25T22:56:03.380Z,36.20
2023-01-25T22:58:30.522Z,33.60
2023-01-25T23:00:57.489Z,37.47
2023-01-25T23:03:24.319Z,44.07
2023-01-25T23:06:05.475Z,38.67
2023-01-25T23:08:33.867Z,38.20
2023-01-25T23:11:11.608Z,38.40
2023-01-25T23:13:39.848Z,39.90
2023-01-25T23:16:08.250Z,36.30
2023-01-25T23:18:49.905Z,36.83
2023-01-25T23:21:18.084Z,37.77
2023-01-25T23:23:44.754Z,37.57
2023-01-25T23:26:11.527Z,37.80
2023-01-25T23:28:38.468Z,38.17
2023-01-25T23:31:21.641Z,39.40
2023-01-25T23:33:56.613Z,39.40
2023-01-25T23:36:27.896Z,39.23
2023-01-25T23:38:55.007Z,37.57
2023-01-25T23:41:23.527Z,39.90
2023-01-25T23:43:50.336Z,41.73
2023-01-25T23:46:17.155Z,39.47
2023-01-25T23:48:44.248Z,41.87
2023-01-25T23:51:11.853Z,41.17
2023-01-25T23:53:39.111Z,41.20
2023-01-25T23:56:15.003Z,41.43
2023-01-25T23:58:41.701Z,43.50
